< < Back
Terminal Aerodrome Forecast


Current Version              Previous Versions:   1  2  3  4  5  6  7  8  9  

Terminal Aerodrome Forecast

716
FTUS42 KFFC 220543
TAFFTY
TAF
KFTY 220543Z 2206/2306 08009KT P6SM -DZ OVC010
     FM220800 09006KT 5SM -DZ BR OVC007
     FM221000 08006KT 2SM -DZ BR OVC003
     FM221600 09008KT 5SM -DZ BR OVC007
     FM230000 09011KT 5SM -DZ BR OVC004=



Latest METAR

616
SAUS70 KWBC 220800 RRD
MTRFTY
METAR KFTY 220753Z 08007KT 4SM BR OVC007 08/07 A3006 RMK AO2 CIG 005V011
SLP177 T00830067


USA.gov is the U.S. government's official web portal to all federal, state and local government web resources and services.